sensor_id;sensor_type;location;lat;lon;timestamp;temperature;humidity
74537;SHT31;63013;51.104;-115.370;2023-01-29T00:00:05;21.49;33.54
74537;SHT31;63013;51.104;-115.370;2023-01-29T00:02:37;21.49;33.56
74537;SHT31;63013;51.104;-115.370;2023-01-29T00:05:05;21.50;33.57
74537;SHT31;63013;51.104;-115.370;2023-01-29T00:07:33;21.51;33.60
74537;SHT31;63013;51.104;-115.370;2023-01-29T00:10:00;21.52;33.59
74537;SHT31;63013;51.104;-115.370;2023-01-29T00:12:28;21.53;33.60
74537;SHT31;63013;51.104;-115.370;2023-01-29T00:15:04;21.53;33.60
74537;SHT31;63013;51.104;-115.370;2023-01-29T00:17:32;21.53;33.61
74537;SHT31;63013;51.104;-115.370;2023-01-29T00:19:59;21.52;33.64
74537;SHT31;63013;51.104;-115.370;2023-01-29T00:22:28;21.50;33.70
74537;SHT31;63013;51.104;-115.370;2023-01-29T00:24:56;21.50;33.73
74537;SHT31;63013;51.104;-115.370;2023-01-29T00:27:23;21.48;33.76
74537;SHT31;63013;51.104;-115.370;2023-01-29T00:29:50;21.47;33.87
74537;SHT31;63013;51.104;-115.370;2023-01-29T00:32:34;21.46;33.98
74537;SHT31;63013;51.104;-115.370;2023-01-29T00:35:01;21.45;34.08
74537;SHT31;63013;51.104;-115.370;2023-01-29T00:37:41;21.47;34.09
74537;SHT31;63013;51.104;-115.370;2023-01-29T00:40:09;21.48;34.09
74537;SHT31;63013;51.104;-115.370;2023-01-29T00:42:36;21.49;34.10
74537;SHT31;63013;51.104;-115.370;2023-01-29T00:45:22;21.52;34.08
74537;SHT31;63013;51.104;-115.370;2023-01-29T00:47:49;21.54;34.06
74537;SHT31;63013;51.104;-115.370;2023-01-29T00:50:16;21.56;34.00
74537;SHT31;63013;51.104;-115.370;2023-01-29T00:52:44;21.56;34.03
74537;SHT31;63013;51.104;-115.370;2023-01-29T00:55:13;21.56;34.08
74537;SHT31;63013;51.104;-115.370;2023-01-29T00:57:40;21.56;34.10
74537;SHT31;63013;51.104;-115.370;2023-01-29T01:00:09;21.55;34.12
74537;SHT31;63013;51.104;-115.370;2023-01-29T01:02:42;21.54;34.21
74537;SHT31;63013;51.104;-115.370;2023-01-29T01:05:28;21.53;34.34
74537;SHT31;63013;51.104;-115.370;2023-01-29T01:07:55;21.54;34.50
74537;SHT31;63013;51.104;-115.370;2023-01-29T01:10:25;21.56;34.51
74537;SHT31;63013;51.104;-115.370;2023-01-29T01:13:01;21.56;34.60
74537;SHT31;63013;51.104;-115.370;2023-01-29T01:15:33;21.59;34.66
74537;SHT31;63013;51.104;-115.370;2023-01-29T01:18:03;21.62;34.70
74537;SHT31;63013;51.104;-115.370;2023-01-29T01:20:32;21.66;34.70
74537;SHT31;63013;51.104;-115.370;2023-01-29T01:23:00;21.69;34.70
74537;SHT31;63013;51.104;-115.370;2023-01-29T01:25:28;21.74;34.70
74537;SHT31;63013;51.104;-115.370;2023-01-29T01:27:56;21.78;34.70
74537;SHT31;63013;51.104;-115.370;2023-01-29T01:30:25;21.80;34.71
74537;SHT31;63013;51.104;-115.370;2023-01-29T01:32:53;21.81;34.73
74537;SHT31;63013;51.104;-115.370;2023-01-29T01:35:20;21.81;34.70
74537;SHT31;63013;51.104;-115.370;2023-01-29T01:37:47;21.82;34.69
74537;SHT31;63013;51.104;-115.370;2023-01-29T01:40:17;21.81;34.61
74537;SHT31;63013;51.104;-115.370;2023-01-29T01:42:49;21.81;34.65
74537;SHT31;63013;51.104;-115.370;2023-01-29T01:45:32;21.79;34.82
74537;SHT31;63013;51.104;-115.370;2023-01-29T01:51:01;21.75;34.90
74537;SHT31;63013;51.104;-115.370;2023-01-29T01:53:36;21.74;34.85
74537;SHT31;63013;51.104;-115.370;2023-01-29T01:56:17;21.72;34.82
74537;SHT31;63013;51.104;-115.370;2023-01-29T01:58:52;21.70;34.79
74537;SHT31;63013;51.104;-115.370;2023-01-29T02:01:24;21.67;34.73
74537;SHT31;63013;51.104;-115.370;2023-01-29T02:03:54;21.65;34.72
74537;SHT31;63013;51.104;-115.370;2023-01-29T02:06:50;21.62;34.70
74537;SHT31;63013;51.104;-115.370;2023-01-29T02:09:39;21.59;34.69
74537;SHT31;63013;51.104;-115.370;2023-01-29T02:12:32;21.56;34.70
74537;SHT31;63013;51.104;-115.370;2023-01-29T02:15:01;21.54;34.63
74537;SHT31;63013;51.104;-115.370;2023-01-29T02:17:29;21.51;34.60
74537;SHT31;63013;51.104;-115.370;2023-01-29T02:20:09;21.48;34.51
74537;SHT31;63013;51.104;-115.370;2023-01-29T02:29:01;21.39;34.51
74537;SHT31;63013;51.104;-115.370;2023-01-29T02:32:14;21.34;34.53
74537;SHT31;63013;51.104;-115.370;2023-01-29T02:35:34;21.30;34.51
74537;SHT31;63013;51.104;-115.370;2023-01-29T02:38:39;21.26;34.51
74537;SHT31;63013;51.104;-115.370;2023-01-29T02:41:25;21.23;34.50
74537;SHT31;63013;51.104;-115.370;2023-01-29T02:44:25;21.18;34.50
74537;SHT31;63013;51.104;-115.370;2023-01-29T02:46:59;21.15;34.50
74537;SHT31;63013;51.104;-115.370;2023-01-29T02:52:35;21.08;34.51
74537;SHT31;63013;51.104;-115.370;2023-01-29T02:56:06;21.02;34.49
74537;SHT31;63013;51.104;-115.370;2023-01-29T02:58:43;20.99;34.42
74537;SHT31;63013;51.104;-115.370;2023-01-29T03:01:39;20.97;34.42
74537;SHT31;63013;51.104;-115.370;2023-01-29T03:04:23;20.95;34.41
74537;SHT31;63013;51.104;-115.370;2023-01-29T03:07:02;20.92;34.41
74537;SHT31;63013;51.104;-115.370;2023-01-29T03:12:12;20.87;34.45
74537;SHT31;63013;51.104;-115.370;2023-01-29T03:14:59;20.85;34.41
74537;SHT31;63013;51.104;-115.370;2023-01-29T03:17:48;20.83;34.41
74537;SHT31;63013;51.104;-115.370;2023-01-29T03:20:24;20.80;34.43
74537;SHT31;63013;51.104;-115.370;2023-01-29T03:23:10;20.79;34.40
74537;SHT31;63013;51.104;-115.370;2023-01-29T03:25:55;20.77;34.40
74537;SHT31;63013;51.104;-115.370;2023-01-29T03:28:43;20.75;34.39
74537;SHT31;63013;51.104;-115.370;2023-01-29T03:31:31;20.73;34.34
74537;SHT31;63013;51.104;-115.370;2023-01-29T03:34:22;20.70;34.35
74537;SHT31;63013;51.104;-115.370;2023-01-29T03:39:55;20.64;34.21
74537;SHT31;63013;51.104;-115.370;2023-01-29T03:45:15;20.59;34.16
74537;SHT31;63013;51.104;-115.370;2023-01-29T03:59:51;20.42;34.10
74537;SHT31;63013;51.104;-115.370;2023-01-29T04:02:46;20.38;34.10
74537;SHT31;63013;51.104;-115.370;2023-01-29T04:08:55;20.32;34.12
74537;SHT31;63013;51.104;-115.370;2023-01-29T04:11:32;20.28;34.12
74537;SHT31;63013;51.104;-115.370;2023-01-29T04:14:06;20.26;34.10
74537;SHT31;63013;51.104;-115.370;2023-01-29T04:16:35;20.23;34.03
74537;SHT31;63013;51.104;-115.370;2023-01-29T04:19:09;20.20;34.00
74537;SHT31;63013;51.104;-115.370;2023-01-29T04:21:40;20.18;33.99
74537;SHT31;63013;51.104;-115.370;2023-01-29T04:24:08;20.15;33.94
74537;SHT31;63013;51.104;-115.370;2023-01-29T04:26:43;20.12;33.91
74537;SHT31;63013;51.104;-115.370;2023-01-29T04:30:03;20.09;33.90
74537;SHT31;63013;51.104;-115.370;2023-01-29T04:33:10;20.05;33.93
74537;SHT31;63013;51.104;-115.370;2023-01-29T04:36:16;20.01;33.91
74537;SHT31;63013;51.104;-115.370;2023-01-29T04:40:06;19.97;33.90
74537;SHT31;63013;51.104;-115.370;2023-01-29T04:42:29;19.94;33.92
74537;SHT31;63013;51.104;-115.370;2023-01-29T04:47:48;19.88;33.93
74537;SHT31;63013;51.104;-115.370;2023-01-29T04:51:03;19.86;33.92
74537;SHT31;63013;51.104;-115.370;2023-01-29T04:54:00;19.82;33.90
74537;SHT31;63013;51.104;-115.370;2023-01-29T04:57:14;19.78;33.88
74537;SHT31;63013;51.104;-115.370;2023-01-29T05:00:03;19.76;33.84
74537;SHT31;63013;51.104;-115.370;2023-01-29T05:02:36;19.75;33.80
74537;SHT31;63013;51.104;-115.370;2023-01-29T05:05:06;19.72;33.81
74537;SHT31;63013;51.104;-115.370;2023-01-29T05:07:36;19.71;33.80
74537;SHT31;63013;51.104;-115.370;2023-01-29T05:10:06;19.69;33.78
74537;SHT31;63013;51.104;-115.370;2023-01-29T05:12:38;19.65;33.77
74537;SHT31;63013;51.104;-115.370;2023-01-29T05:15:10;19.64;33.74
74537;SHT31;63013;51.104;-115.370;2023-01-29T05:17:45;19.61;33.77
74537;SHT31;63013;51.104;-115.370;2023-01-29T05:20:12;19.58;33.73
74537;SHT31;63013;51.104;-115.370;2023-01-29T05:22:40;19.55;33.75
74537;SHT31;63013;51.104;-115.370;2023-01-29T05:25:17;19.52;33.74
74537;SHT31;63013;51.104;-115.370;2023-01-29T05:27:50;19.50;33.77
74537;SHT31;63013;51.104;-115.370;2023-01-29T05:30:41;19.47;33.78
74537;SHT31;63013;51.104;-115.370;2023-01-29T05:33:22;19.43;33.71
74537;SHT31;63013;51.104;-115.370;2023-01-29T05:35:52;19.40;33.71
74537;SHT31;63013;51.104;-115.370;2023-01-29T05:38:21;19.37;33.66
74537;SHT31;63013;51.104;-115.370;2023-01-29T05:40:48;19.35;33.60
74537;SHT31;63013;51.104;-115.370;2023-01-29T05:45:55;19.30;33.66
74537;SHT31;63013;51.104;-115.370;2023-01-29T05:48:25;19.27;33.61
74537;SHT31;63013;51.104;-115.370;2023-01-29T05:50:58;19.25;33.64
74537;SHT31;63013;51.104;-115.370;2023-01-29T05:53:30;19.21;33.67
74537;SHT31;63013;51.104;-115.370;2023-01-29T05:56:01;19.19;33.70
74537;SHT31;63013;51.104;-115.370;2023-01-29T05:58:30;19.17;33.71
74537;SHT31;63013;51.104;-115.370;2023-01-29T06:01:08;19.14;33.72
74537;SHT31;63013;51.104;-115.370;2023-01-29T06:03:37;19.11;33.69
74537;SHT31;63013;51.104;-115.370;2023-01-29T06:06:05;19.10;33.70
74537;SHT31;63013;51.104;-115.370;2023-01-29T06:08:32;19.07;33.65
74537;SHT31;63013;51.104;-115.370;2023-01-29T06:10:59;19.04;33.68
74537;SHT31;63013;51.104;-115.370;2023-01-29T06:13:27;19.03;33.70
74537;SHT31;63013;51.104;-115.370;2023-01-29T06:15:54;19.01;33.64
74537;SHT31;63013;51.104;-115.370;2023-01-29T06:18:21;18.99;33.66
74537;SHT31;63013;51.104;-115.370;2023-01-29T06:20:49;18.95;33.60
74537;SHT31;63013;51.104;-115.370;2023-01-29T06:23:16;18.93;33.54
74537;SHT31;63013;51.104;-115.370;2023-01-29T06:25:43;18.90;33.56
74537;SHT31;63013;51.104;-115.370;2023-01-29T06:28:12;18.88;33.57
74537;SHT31;63013;51.104;-115.370;2023-01-29T06:30:39;18.85;33.60
74537;SHT31;63013;51.104;-115.370;2023-01-29T06:33:07;18.82;33.58
74537;SHT31;63013;51.104;-115.370;2023-01-29T06:35:34;18.80;33.55
74537;SHT31;63013;51.104;-115.370;2023-01-29T06:38:01;18.76;33.57
74537;SHT31;63013;51.104;-115.370;2023-01-29T06:40:28;18.74;33.61
74537;SHT31;63013;51.104;-115.370;2023-01-29T06:42:56;18.71;33.58
74537;SHT31;63013;51.104;-115.370;2023-01-29T06:45:25;18.68;33.57
74537;SHT31;63013;51.104;-115.370;2023-01-29T06:47:53;18.65;33.61
74537;SHT31;63013;51.104;-115.370;2023-01-29T06:50:21;18.63;33.65
74537;SHT31;63013;51.104;-115.370;2023-01-29T06:52:47;18.62;33.58
74537;SHT31;63013;51.104;-115.370;2023-01-29T06:55:15;18.58;33.58
74537;SHT31;63013;51.104;-115.370;2023-01-29T06:57:41;18.56;33.52
74537;SHT31;63013;51.104;-115.370;2023-01-29T07:00:09;18.55;33.55
74537;SHT31;63013;51.104;-115.370;2023-01-29T07:02:36;18.51;33.58
74537;SHT31;63013;51.104;-115.370;2023-01-29T07:05:04;18.49;33.66
74537;SHT31;63013;51.104;-115.370;2023-01-29T07:07:33;18.46;33.56
74537;SHT31;63013;51.104;-115.370;2023-01-29T07:10:01;18.43;33.58
74537;SHT31;63013;51.104;-115.370;2023-01-29T07:12:28;18.42;33.58
74537;SHT31;63013;51.104;-115.370;2023-01-29T07:14:56;18.38;33.59
74537;SHT31;63013;51.104;-115.370;2023-01-29T07:17:23;18.34;33.63
74537;SHT31;63013;51.104;-115.370;2023-01-29T07:19:50;18.32;33.66
74537;SHT31;63013;51.104;-115.370;2023-01-29T07:22:17;18.30;33.62
74537;SHT31;63013;51.104;-115.370;2023-01-29T07:24:44;18.26;33.61
74537;SHT31;63013;51.104;-115.370;2023-01-29T07:27:12;18.23;33.62
74537;SHT31;63013;51.104;-115.370;2023-01-29T07:29:40;18.21;33.64
74537;SHT31;63013;51.104;-115.370;2023-01-29T07:32:07;18.18;33.71
74537;SHT31;63013;51.104;-115.370;2023-01-29T07:34:34;18.15;33.68
74537;SHT31;63013;51.104;-115.370;2023-01-29T07:37:02;18.12;33.66
74537;SHT31;63013;51.104;-115.370;2023-01-29T07:39:30;18.09;33.66
74537;SHT31;63013;51.104;-115.370;2023-01-29T07:41:58;18.06;33.73
74537;SHT31;63013;51.104;-115.370;2023-01-29T07:44:26;18.02;33.73
74537;SHT31;63013;51.104;-115.370;2023-01-29T07:46:54;18.01;33.77
74537;SHT31;63013;51.104;-115.370;2023-01-29T07:49:21;17.97;33.75
74537;SHT31;63013;51.104;-115.370;2023-01-29T07:51:48;17.94;33.75
74537;SHT31;63013;51.104;-115.370;2023-01-29T07:54:15;17.92;33.77
74537;SHT31;63013;51.104;-115.370;2023-01-29T07:56:42;17.90;33.85
74537;SHT31;63013;51.104;-115.370;2023-01-29T07:59:09;17.88;33.82
74537;SHT31;63013;51.104;-115.370;2023-01-29T08:01:36;17.85;33.72
74537;SHT31;63013;51.104;-115.370;2023-01-29T08:04:04;17.82;33.85
74537;SHT31;63013;51.104;-115.370;2023-01-29T08:06:31;17.79;33.85
74537;SHT31;63013;51.104;-115.370;2023-01-29T08:08:58;17.77;33.77
74537;SHT31;63013;51.104;-115.370;2023-01-29T08:11:25;17.75;33.84
74537;SHT31;63013;51.104;-115.370;2023-01-29T08:13:52;17.72;33.80
74537;SHT31;63013;51.104;-115.370;2023-01-29T08:16:21;17.70;33.78
74537;SHT31;63013;51.104;-115.370;2023-01-29T08:18:48;17.67;33.80
74537;SHT31;63013;51.104;-115.370;2023-01-29T08:21:15;17.65;33.84
74537;SHT31;63013;51.104;-115.370;2023-01-29T08:23:42;17.61;33.79
74537;SHT31;63013;51.104;-115.370;2023-01-29T08:26:10;17.59;33.76
74537;SHT31;63013;51.104;-115.370;2023-01-29T08:28:37;17.57;33.79
74537;SHT31;63013;51.104;-115.370;2023-01-29T08:31:11;17.54;33.81
74537;SHT31;63013;51.104;-115.370;2023-01-29T08:33:45;17.51;33.90
74537;SHT31;63013;51.104;-115.370;2023-01-29T08:36:12;17.48;33.92
74537;SHT31;63013;51.104;-115.370;2023-01-29T08:38:39;17.46;33.91
74537;SHT31;63013;51.104;-115.370;2023-01-29T08:41:06;17.44;33.89
74537;SHT31;63013;51.104;-115.370;2023-01-29T08:43:34;17.41;33.89
74537;SHT31;63013;51.104;-115.370;2023-01-29T08:46:05;17.39;33.89
74537;SHT31;63013;51.104;-115.370;2023-01-29T08:48:33;17.37;33.84
74537;SHT31;63013;51.104;-115.370;2023-01-29T08:51:00;17.35;33.91
74537;SHT31;63013;51.104;-115.370;2023-01-29T08:53:29;17.33;33.93
74537;SHT31;63013;51.104;-115.370;2023-01-29T08:55:57;17.30;33.83
74537;SHT31;63013;51.104;-115.370;2023-01-29T08:58:24;17.27;33.92
74537;SHT31;63013;51.104;-115.370;2023-01-29T09:00:52;17.25;33.83
74537;SHT31;63013;51.104;-115.370;2023-01-29T09:03:19;17.22;33.84
74537;SHT31;63013;51.104;-115.370;2023-01-29T09:05:47;17.20;33.91
74537;SHT31;63013;51.104;-115.370;2023-01-29T09:08:14;17.18;33.91
74537;SHT31;63013;51.104;-115.370;2023-01-29T09:10:41;17.16;33.90
74537;SHT31;63013;51.104;-115.370;2023-01-29T09:13:09;17.14;33.84
74537;SHT31;63013;51.104;-115.370;2023-01-29T09:15:36;17.11;33.85
74537;SHT31;63013;51.104;-115.370;2023-01-29T09:18:04;17.09;33.88
74537;SHT31;63013;51.104;-115.370;2023-01-29T09:20:31;17.07;33.85
74537;SHT31;63013;51.104;-115.370;2023-01-29T09:23:02;17.06;33.87
74537;SHT31;63013;51.104;-115.370;2023-01-29T09:25:34;17.03;33.86
74537;SHT31;63013;51.104;-115.370;2023-01-29T09:28:02;17.00;33.84
74537;SHT31;63013;51.104;-115.370;2023-01-29T09:30:30;16.97;33.86
74537;SHT31;63013;51.104;-115.370;2023-01-29T09:32:59;16.96;33.87
74537;SHT31;63013;51.104;-115.370;2023-01-29T09:35:26;16.92;33.84
74537;SHT31;63013;51.104;-115.370;2023-01-29T09:37:53;16.89;33.91
74537;SHT31;63013;51.104;-115.370;2023-01-29T09:40:30;16.88;33.85
74537;SHT31;63013;51.104;-115.370;2023-01-29T09:46:22;16.82;33.62
74537;SHT31;63013;51.104;-115.370;2023-01-29T09:51:40;16.78;33.16
74537;SHT31;63013;51.104;-115.370;2023-01-29T09:54:29;16.78;33.03
74537;SHT31;63013;51.104;-115.370;2023-01-29T09:57:12;16.79;33.00
74537;SHT31;63013;51.104;-115.370;2023-01-29T09:59:47;16.78;33.03
74537;SHT31;63013;51.104;-115.370;2023-01-29T10:25:43;16.59;33.23
74537;SHT31;63013;51.104;-115.370;2023-01-29T10:28:16;16.59;33.13
74537;SHT31;63013;51.104;-115.370;2023-01-29T10:31:12;16.59;33.00
74537;SHT31;63013;51.104;-115.370;2023-01-29T10:33:59;16.61;32.99
74537;SHT31;63013;51.104;-115.370;2023-01-29T10:36:43;16.63;32.97
74537;SHT31;63013;51.104;-115.370;2023-01-29T10:44:48;16.65;33.20
74537;SHT31;63013;51.104;-115.370;2023-01-29T10:47:46;16.63;33.31
74537;SHT31;63013;51.104;-115.370;2023-01-29T11:00:09;16.59;33.02
74537;SHT31;63013;51.104;-115.370;2023-01-29T11:02:50;16.58;32.92
74537;SHT31;63013;51.104;-115.370;2023-01-29T11:08:07;16.58;32.83
74537;SHT31;63013;51.104;-115.370;2023-01-29T11:10:47;16.60;32.80
74537;SHT31;63013;51.104;-115.370;2023-01-29T11:13:45;16.61;32.80
74537;SHT31;63013;51.104;-115.370;2023-01-29T11:16:25;16.62;32.83
74537;SHT31;63013;51.104;-115.370;2023-01-29T11:18:58;16.64;32.90
74537;SHT31;63013;51.104;-115.370;2023-01-29T11:21:27;16.64;32.94
74537;SHT31;63013;51.104;-115.370;2023-01-29T11:24:10;16.64;33.02
74537;SHT31;63013;51.104;-115.370;2023-01-29T11:26:44;16.63;33.12
74537;SHT31;63013;51.104;-115.370;2023-01-29T11:29:33;16.61;33.12
74537;SHT31;63013;51.104;-115.370;2023-01-29T11:35:05;16.58;32.94
74537;SHT31;63013;51.104;-115.370;2023-01-29T11:37:47;16.57;32.87
74537;SHT31;63013;51.104;-115.370;2023-01-29T11:42:52;16.58;32.75
74537;SHT31;63013;51.104;-115.370;2023-01-29T11:47:57;16.59;32.71
74537;SHT31;63013;51.104;-115.370;2023-01-29T11:50:26;16.60;32.77
74537;SHT31;63013;51.104;-115.370;2023-01-29T11:52:59;16.61;32.82
74537;SHT31;63013;51.104;-115.370;2023-01-29T11:55:32;16.60;32.90
74537;SHT31;63013;51.104;-115.370;2023-01-29T12:01:07;16.58;33.07
74537;SHT31;63013;51.104;-115.370;2023-01-29T12:03:38;16.56;33.08
74537;SHT31;63013;51.104;-115.370;2023-01-29T12:06:29;16.55;33.06
74537;SHT31;63013;51.104;-115.370;2023-01-29T12:09:02;16.52;32.89
74537;SHT31;63013;51.104;-115.370;2023-01-29T12:11:40;16.51;32.79
74537;SHT31;63013;51.104;-115.370;2023-01-29T12:14:21;16.51;32.72
74537;SHT31;63013;51.104;-115.370;2023-01-29T12:19:49;16.52;32.74
74537;SHT31;63013;51.104;-115.370;2023-01-29T12:25:23;16.54;32.75
74537;SHT31;63013;51.104;-115.370;2023-01-29T12:28:12;16.54;32.80
74537;SHT31;63013;51.104;-115.370;2023-01-29T12:31:18;16.55;32.85
74537;SHT31;63013;51.104;-115.370;2023-01-29T12:37:25;16.52;32.99
74537;SHT31;63013;51.104;-115.370;2023-01-29T12:40:12;16.51;33.03
74537;SHT31;63013;51.104;-115.370;2023-01-29T12:42:46;16.50;33.00
74537;SHT31;63013;51.104;-115.370;2023-01-29T12:45:21;16.48;32.92
74537;SHT31;63013;51.104;-115.370;2023-01-29T12:48:04;16.47;32.88
74537;SHT31;63013;51.104;-115.370;2023-01-29T12:50:36;16.47;32.73
74537;SHT31;63013;51.104;-115.370;2023-01-29T12:55:52;16.50;32.73
74537;SHT31;63013;51.104;-115.370;2023-01-29T12:58:36;16.51;32.70
74537;SHT31;63013;51.104;-115.370;2023-01-29T13:01:21;16.53;32.70
74537;SHT31;63013;51.104;-115.370;2023-01-29T13:07:23;16.59;32.71
74537;SHT31;63013;51.104;-115.370;2023-01-29T13:10:00;16.63;32.70
74537;SHT31;63013;51.104;-115.370;2023-01-29T13:12:38;16.67;32.70
74537;SHT31;63013;51.104;-115.370;2023-01-29T13:15:21;16.68;32.71
74537;SHT31;63013;51.104;-115.370;2023-01-29T13:18:51;16.71;32.70
74537;SHT31;63013;51.104;-115.370;2023-01-29T13:20:58;16.75;32.69
74537;SHT31;63013;51.104;-115.370;2023-01-29T13:23:31;16.78;32.70
74537;SHT31;63013;51.104;-115.370;2023-01-29T13:26:04;16.82;32.70
74537;SHT31;63013;51.104;-115.370;2023-01-29T13:28:31;16.84;32.67
74537;SHT31;63013;51.104;-115.370;2023-01-29T13:31:12;16.87;32.61
74537;SHT31;63013;51.104;-115.370;2023-01-29T13:36:53;16.92;32.59
74537;SHT31;63013;51.104;-115.370;2023-01-29T13:39:26;16.95;32.58
74537;SHT31;63013;51.104;-115.370;2023-01-29T13:41:57;16.98;32.61
74537;SHT31;63013;51.104;-115.370;2023-01-29T13:44:28;17.01;32.59
74537;SHT31;63013;51.104;-115.370;2023-01-29T13:47:04;17.05;32.60
74537;SHT31;63013;51.104;-115.370;2023-01-29T13:49:37;17.09;32.60
74537;SHT31;63013;51.104;-115.370;2023-01-29T13:52:18;17.15;32.63
74537;SHT31;63013;51.104;-115.370;2023-01-29T13:57:52;17.26;32.62
74537;SHT31;63013;51.104;-115.370;2023-01-29T14:05:55;17.39;32.59
74537;SHT31;63013;51.104;-115.370;2023-01-29T14:11:39;17.45;32.50
74537;SHT31;63013;51.104;-115.370;2023-01-29T14:14:09;17.50;32.48
74537;SHT31;63013;51.104;-115.370;2023-01-29T14:17:21;17.54;32.46
74537;SHT31;63013;51.104;-115.370;2023-01-29T14:20:01;17.58;32.48
74537;SHT31;63013;51.104;-115.370;2023-01-29T14:22:44;17.62;32.48
74537;SHT31;63013;51.104;-115.370;2023-01-29T14:25:33;17.67;32.49
74537;SHT31;63013;51.104;-115.370;2023-01-29T14:28:04;17.74;32.49
74537;SHT31;63013;51.104;-115.370;2023-01-29T14:30:48;17.80;32.53
74537;SHT31;63013;51.104;-115.370;2023-01-29T14:33:22;17.87;32.62
74537;SHT31;63013;51.104;-115.370;2023-01-29T14:36:01;17.92;32.70
74537;SHT31;63013;51.104;-115.370;2023-01-29T14:38:33;17.97;32.71
74537;SHT31;63013;51.104;-115.370;2023-01-29T14:41:02;18.01;32.78
74537;SHT31;63013;51.104;-115.370;2023-01-29T14:43:42;18.04;32.77
74537;SHT31;63013;51.104;-115.370;2023-01-29T14:49:09;18.12;32.78
74537;SHT31;63013;51.104;-115.370;2023-01-29T14:51:37;18.16;32.73
74537;SHT31;63013;51.104;-115.370;2023-01-29T14:54:25;18.19;32.80
74537;SHT31;63013;51.104;-115.370;2023-01-29T14:56:58;18.22;32.81
74537;SHT31;63013;51.104;-115.370;2023-01-29T15:02:43;18.27;32.91
74537;SHT31;63013;51.104;-115.370;2023-01-29T15:05:20;18.30;32.95
74537;SHT31;63013;51.104;-115.370;2023-01-29T15:08:22;18.34;32.99
74537;SHT31;63013;51.104;-115.370;2023-01-29T15:10:57;18.38;33.02
74537;SHT31;63013;51.104;-115.370;2023-01-29T15:13:59;18.42;33.08
74537;SHT31;63013;51.104;-115.370;2023-01-29T15:16:47;18.47;33.10
74537;SHT31;63013;51.104;-115.370;2023-01-29T15:19:42;18.51;33.12
74537;SHT31;63013;51.104;-115.370;2023-01-29T15:22:22;18.56;33.10
74537;SHT31;63013;51.104;-115.370;2023-01-29T15:25:08;18.59;33.13
74537;SHT31;63013;51.104;-115.370;2023-01-29T15:27:43;18.62;33.11
74537;SHT31;63013;51.104;-115.370;2023-01-29T15:30:32;18.64;33.08
74537;SHT31;63013;51.104;-115.370;2023-01-29T15:33:02;18.67;33.05
74537;SHT31;63013;51.104;-115.370;2023-01-29T15:35:40;18.71;33.06
74537;SHT31;63013;51.104;-115.370;2023-01-29T15:38:19;18.73;33.10
74537;SHT31;63013;51.104;-115.370;2023-01-29T15:40:52;18.76;33.16
74537;SHT31;63013;51.104;-115.370;2023-01-29T15:43:24;18.81;33.24
74537;SHT31;63013;51.104;-115.370;2023-01-29T15:45:55;18.85;33.20
74537;SHT31;63013;51.104;-115.370;2023-01-29T15:48:36;18.90;33.11
74537;SHT31;63013;51.104;-115.370;2023-01-29T15:51:07;18.95;33.07
74537;SHT31;63013;51.104;-115.370;2023-01-29T15:53:45;19.01;33.00
74537;SHT31;63013;51.104;-115.370;2023-01-29T15:56:23;19.05;32.95
74537;SHT31;63013;51.104;-115.370;2023-01-29T15:59:02;19.10;32.96
74537;SHT31;63013;51.104;-115.370;2023-01-29T16:01:33;19.14;33.00
74537;SHT31;63013;51.104;-115.370;2023-01-29T16:04:00;19.19;33.02
74537;SHT31;63013;51.104;-115.370;2023-01-29T16:06:38;19.22;33.03
74537;SHT31;63013;51.104;-115.370;2023-01-29T16:09:09;19.25;32.93
74537;SHT31;63013;51.104;-115.370;2023-01-29T16:11:48;19.26;32.85
74537;SHT31;63013;51.104;-115.370;2023-01-29T16:14:18;19.25;32.87
74537;SHT31;63013;51.104;-115.370;2023-01-29T16:16:50;19.25;32.89
74537;SHT31;63013;51.104;-115.370;2023-01-29T16:19:25;19.26;32.91
74537;SHT31;63013;51.104;-115.370;2023-01-29T16:22:00;19.27;32.94
74537;SHT31;63013;51.104;-115.370;2023-01-29T16:24:33;19.30;32.99
74537;SHT31;63013;51.104;-115.370;2023-01-29T16:27:07;19.32;32.98
74537;SHT31;63013;51.104;-115.370;2023-01-29T16:29:39;19.35;32.99
74537;SHT31;63013;51.104;-115.370;2023-01-29T16:32:07;19.37;33.00
74537;SHT31;63013;51.104;-115.370;2023-01-29T16:34:45;19.41;33.00
74537;SHT31;63013;51.104;-115.370;2023-01-29T16:40:09;19.51;33.00
74537;SHT31;63013;51.104;-115.370;2023-01-29T16:46:19;19.60;32.91
74537;SHT31;63013;51.104;-115.370;2023-01-29T16:48:58;19.62;32.87
74537;SHT31;63013;51.104;-115.370;2023-01-29T16:51:54;19.61;32.83
74537;SHT31;63013;51.104;-115.370;2023-01-29T16:54:40;19.60;32.90
74537;SHT31;63013;51.104;-115.370;2023-01-29T16:57:41;19.58;32.93
74537;SHT31;63013;51.104;-115.370;2023-01-29T17:00:07;19.57;32.89
74537;SHT31;63013;51.104;-115.370;2023-01-29T17:02:51;19.57;32.96
74537;SHT31;63013;51.104;-115.370;2023-01-29T17:05:34;19.57;32.95
74537;SHT31;63013;51.104;-115.370;2023-01-29T17:08:20;19.58;33.01
74537;SHT31;63013;51.104;-115.370;2023-01-29T17:10:52;19.59;33.09
74537;SHT31;63013;51.104;-115.370;2023-01-29T17:13:26;19.61;33.18
74537;SHT31;63013;51.104;-115.370;2023-01-29T17:16:28;19.63;33.27
74537;SHT31;63013;51.104;-115.370;2023-01-29T17:18:58;19.67;33.40
74537;SHT31;63013;51.104;-115.370;2023-01-29T17:21:27;19.68;33.54
74537;SHT31;63013;51.104;-115.370;2023-01-29T17:23:55;19.72;33.72
74537;SHT31;63013;51.104;-115.370;2023-01-29T17:26:25;19.74;33.77
74537;SHT31;63013;51.104;-115.370;2023-01-29T17:28:52;19.76;33.71
74537;SHT31;63013;51.104;-115.370;2023-01-29T17:31:19;19.76;33.71
74537;SHT31;63013;51.104;-115.370;2023-01-29T17:33:46;19.75;33.82
74537;SHT31;63013;51.104;-115.370;2023-01-29T17:36:14;19.75;33.90
74537;SHT31;63013;51.104;-115.370;2023-01-29T17:38:43;19.74;33.91
74537;SHT31;63013;51.104;-115.370;2023-01-29T17:41:13;19.72;34.00
74537;SHT31;63013;51.104;-115.370;2023-01-29T17:43:51;19.71;33.91
74537;SHT31;63013;51.104;-115.370;2023-01-29T17:46:18;19.70;33.90
74537;SHT31;63013;51.104;-115.370;2023-01-29T17:48:47;19.72;33.90
74537;SHT31;63013;51.104;-115.370;2023-01-29T17:51:14;19.73;33.85
74537;SHT31;63013;51.104;-115.370;2023-01-29T17:53:43;19.74;33.81
74537;SHT31;63013;51.104;-115.370;2023-01-29T17:56:14;19.75;33.81
74537;SHT31;63013;51.104;-115.370;2023-01-29T17:58:45;19.77;33.77